sensor_id;sensor_type;location;lat;lon;timestamp;pressure;altitude;pressure_sealevel;temperature;humidity
5777;BME280;2914;42.668;23.346;2022-11-14T00:02:09;95618.02;;;8.31;89.88
5777;BME280;2914;42.668;23.346;2022-11-14T00:04:38;95610.68;;;8.36;90.45
5777;BME280;2914;42.668;23.346;2022-11-14T00:07:08;95611.78;;;8.39;90.53
5777;BME280;2914;42.668;23.346;2022-11-14T00:09:37;95612.27;;;8.39;89.59
5777;BME280;2914;42.668;23.346;2022-11-14T00:12:08;95604.97;;;8.37;89.54
5777;BME280;2914;42.668;23.346;2022-11-14T00:14:38;95612.53;;;8.41;89.23
5777;BME280;2914;42.668;23.346;2022-11-14T00:17:07;95610.02;;;8.40;88.88
5777;BME280;2914;42.668;23.346;2022-11-14T00:19:36;95612.48;;;8.36;89.34
5777;BME280;2914;42.668;23.346;2022-11-14T00:22:06;95606.78;;;8.29;89.65
5777;BME280;2914;42.668;23.346;2022-11-14T00:24:35;95610.08;;;8.25;89.77
5777;BME280;2914;42.668;23.346;2022-11-14T00:27:04;95608.04;;;8.23;89.71
5777;BME280;2914;42.668;23.346;2022-11-14T00:29:33;95605.97;;;8.21;88.99
5777;BME280;2914;42.668;23.346;2022-11-14T00:32:03;95610.39;;;8.21;89.08
5777;BME280;2914;42.668;23.346;2022-11-14T00:34:32;95608.26;;;8.13;89.52
5777;BME280;2914;42.668;23.346;2022-11-14T00:37:01;95605.67;;;8.06;89.48
5777;BME280;2914;42.668;23.346;2022-11-14T00:42:10;95613.36;;;7.89;90.90
5777;BME280;2914;42.668;23.346;2022-11-14T00:44:39;95614.05;;;7.78;90.95
5777;BME280;2914;42.668;23.346;2022-11-14T00:47:08;95608.94;;;7.89;90.60
5777;BME280;2914;42.668;23.346;2022-11-14T00:49:41;95612.39;;;7.90;90.89
5777;BME280;2914;42.668;23.346;2022-11-14T00:52:17;95608.45;;;7.90;90.91
5777;BME280;2914;42.668;23.346;2022-11-14T00:54:47;95610.87;;;7.73;91.16
5777;BME280;2914;42.668;23.346;2022-11-14T00:57:16;95608.66;;;7.87;91.13
5777;BME280;2914;42.668;23.346;2022-11-14T00:59:45;95605.92;;;7.88;90.83
5777;BME280;2914;42.668;23.346;2022-11-14T01:02:14;95601.26;;;7.86;90.50
5777;BME280;2914;42.668;23.346;2022-11-14T01:04:43;95601.95;;;7.75;90.91
5777;BME280;2914;42.668;23.346;2022-11-14T01:07:12;95603.37;;;7.74;91.22
5777;BME280;2914;42.668;23.346;2022-11-14T01:09:41;95603.75;;;7.75;90.81
5777;BME280;2914;42.668;23.346;2022-11-14T01:12:10;95602.28;;;7.56;91.37
5777;BME280;2914;42.668;23.346;2022-11-14T01:14:40;95600.29;;;7.67;90.95
5777;BME280;2914;42.668;23.346;2022-11-14T01:17:09;95598.59;;;7.66;90.88
5777;BME280;2914;42.668;23.346;2022-11-14T01:19:39;95602.09;;;7.67;90.52
5777;BME280;2914;42.668;23.346;2022-11-14T01:22:08;95598.55;;;7.53;90.80
5777;BME280;2914;42.668;23.346;2022-11-14T01:24:37;95600.22;;;7.61;90.76
5777;BME280;2914;42.668;23.346;2022-11-14T01:27:06;95597.88;;;7.64;90.64
5777;BME280;2914;42.668;23.346;2022-11-14T01:29:35;95590.44;;;7.63;90.63
5777;BME280;2914;42.668;23.346;2022-11-14T01:32:04;95583.15;;;7.61;90.58
5777;BME280;2914;42.668;23.346;2022-11-14T01:34:33;95581.14;;;7.65;90.73
5777;BME280;2914;42.668;23.346;2022-11-14T01:37:02;95582.28;;;7.68;90.10
5777;BME280;2914;42.668;23.346;2022-11-14T01:39:32;95582.84;;;7.66;90.81
5777;BME280;2914;42.668;23.346;2022-11-14T01:42:01;95574.13;;;7.66;91.13
5777;BME280;2914;42.668;23.346;2022-11-14T01:44:44;95573.09;;;7.68;90.81
5777;BME280;2914;42.668;23.346;2022-11-14T01:49:56;95565.49;;;7.71;90.58
5777;BME280;2914;42.668;23.346;2022-11-14T01:52:28;95566.45;;;7.62;89.83
5777;BME280;2914;42.668;23.346;2022-11-14T01:55:01;95564.01;;;7.59;89.54
5777;BME280;2914;42.668;23.346;2022-11-14T01:57:33;95562.63;;;7.54;89.69
5777;BME280;2914;42.668;23.346;2022-11-14T02:00:06;95559.55;;;7.54;89.59
5777;BME280;2914;42.668;23.346;2022-11-14T02:02:36;95559.55;;;7.54;89.23
5777;BME280;2914;42.668;23.346;2022-11-14T02:05:09;95556.16;;;7.52;88.88
5777;BME280;2914;42.668;23.346;2022-11-14T02:07:40;95553.84;;;7.47;89.31
5777;BME280;2914;42.668;23.346;2022-11-14T02:10:15;95551.22;;;7.40;88.29
5777;BME280;2914;42.668;23.346;2022-11-14T02:12:45;95540.20;;;7.35;87.61
5777;BME280;2914;42.668;23.346;2022-11-14T02:15:17;95546.09;;;7.32;87.94
5777;BME280;2914;42.668;23.346;2022-11-14T02:17:46;95551.27;;;7.26;88.26
5777;BME280;2914;42.668;23.346;2022-11-14T02:20:26;95548.65;;;7.26;88.81
5777;BME280;2914;42.668;23.346;2022-11-14T02:22:55;95541.50;;;7.28;88.92
5777;BME280;2914;42.668;23.346;2022-11-14T02:25:25;95544.81;;;7.24;89.46
5777;BME280;2914;42.668;23.346;2022-11-14T02:27:55;95541.81;;;7.23;90.22
5777;BME280;2914;42.668;23.346;2022-11-14T02:30:38;95546.67;;;7.22;91.81
5777;BME280;2914;42.668;23.346;2022-11-14T02:33:07;95551.47;;;7.16;92.29
5777;BME280;2914;42.668;23.346;2022-11-14T02:35:36;95539.03;;;7.12;92.14
5777;BME280;2914;42.668;23.346;2022-11-14T02:38:08;95551.20;;;7.06;92.24
5777;BME280;2914;42.668;23.346;2022-11-14T02:40:38;95549.06;;;7.05;92.52
5777;BME280;2914;42.668;23.346;2022-11-14T02:43:08;95547.45;;;7.10;92.11
5777;BME280;2914;42.668;23.346;2022-11-14T02:45:37;95549.53;;;7.12;90.97
5777;BME280;2914;42.668;23.346;2022-11-14T02:48:06;95547.75;;;7.05;90.81
5777;BME280;2914;42.668;23.346;2022-11-14T02:50:37;95548.60;;;6.99;91.57
5777;BME280;2914;42.668;23.346;2022-11-14T02:53:06;95543.92;;;6.89;92.25
5777;BME280;2914;42.668;23.346;2022-11-14T02:55:35;95541.21;;;6.98;92.68
5777;BME280;2914;42.668;23.346;2022-11-14T02:58:07;95543.84;;;6.98;92.73
5777;BME280;2914;42.668;23.346;2022-11-14T03:00:36;95538.41;;;6.94;93.06
5777;BME280;2914;42.668;23.346;2022-11-14T03:03:05;95540.06;;;6.95;93.44
5777;BME280;2914;42.668;23.346;2022-11-14T03:05:34;95539.12;;;7.03;93.43
5777;BME280;2914;42.668;23.346;2022-11-14T03:08:03;95537.74;;;7.05;92.80
5777;BME280;2914;42.668;23.346;2022-11-14T03:13:12;95531.54;;;7.13;91.46
5777;BME280;2914;42.668;23.346;2022-11-14T03:15:41;95535.77;;;7.01;90.08
5777;BME280;2914;42.668;23.346;2022-11-14T03:18:10;95539.05;;;7.05;90.49
5777;BME280;2914;42.668;23.346;2022-11-14T03:20:40;95533.55;;;6.81;91.66
5777;BME280;2914;42.668;23.346;2022-11-14T03:23:09;95532.31;;;6.86;92.24
5777;BME280;2914;42.668;23.346;2022-11-14T03:28:14;95530.17;;;6.86;93.54
5777;BME280;2914;42.668;23.346;2022-11-14T03:30:43;95536.90;;;6.83;94.16
5777;BME280;2914;42.668;23.346;2022-11-14T03:33:14;95540.20;;;6.79;94.72
5777;BME280;2914;42.668;23.346;2022-11-14T03:35:43;95535.34;;;6.80;94.92
5777;BME280;2914;42.668;23.346;2022-11-14T03:38:12;95532.78;;;6.78;95.17
5777;BME280;2914;42.668;23.346;2022-11-14T03:40:42;95531.77;;;6.74;94.71
5777;BME280;2914;42.668;23.346;2022-11-14T03:43:13;95536.00;;;6.69;95.76
5777;BME280;2914;42.668;23.346;2022-11-14T03:45:42;95526.63;;;6.65;97.01
5777;BME280;2914;42.668;23.346;2022-11-14T03:48:12;95525.03;;;6.62;97.78
5777;BME280;2914;42.668;23.346;2022-11-14T03:50:42;95528.97;;;6.62;98.33
5777;BME280;2914;42.668;23.346;2022-11-14T03:53:12;95527.27;;;6.61;98.60
5777;BME280;2914;42.668;23.346;2022-11-14T03:55:42;95531.41;;;6.58;99.08
5777;BME280;2914;42.668;23.346;2022-11-14T04:01:12;95518.38;;;6.64;98.96
5777;BME280;2914;42.668;23.346;2022-11-14T04:03:42;95523.25;;;6.56;99.23
5777;BME280;2914;42.668;23.346;2022-11-14T04:06:12;95522.14;;;6.53;99.26
5777;BME280;2914;42.668;23.346;2022-11-14T04:08:42;95523.48;;;6.01;100.00
5777;BME280;2914;42.668;23.346;2022-11-14T04:11:11;95511.61;;;6.09;100.00
5777;BME280;2914;42.668;23.346;2022-11-14T04:13:40;95521.84;;;6.14;100.00
5777;BME280;2914;42.668;23.346;2022-11-14T04:16:11;95523.88;;;5.86;100.00
5777;BME280;2914;42.668;23.346;2022-11-14T04:18:43;95524.70;;;5.79;100.00
5777;BME280;2914;42.668;23.346;2022-11-14T04:21:12;95521.20;;;5.71;100.00
5777;BME280;2914;42.668;23.346;2022-11-14T04:23:41;95516.03;;;5.86;100.00
5777;BME280;2914;42.668;23.346;2022-11-14T04:26:10;95525.02;;;5.96;100.00
5777;BME280;2914;42.668;23.346;2022-11-14T04:28:39;95519.67;;;5.90;100.00
5777;BME280;2914;42.668;23.346;2022-11-14T04:31:08;95520.96;;;5.99;100.00
5777;BME280;2914;42.668;23.346;2022-11-14T04:33:41;95515.73;;;6.14;100.00
5777;BME280;2914;42.668;23.346;2022-11-14T04:36:13;95512.66;;;6.14;99.91
5777;BME280;2914;42.668;23.346;2022-11-14T04:38:42;95515.58;;;6.24;98.72
5777;BME280;2914;42.668;23.346;2022-11-14T04:41:11;95517.81;;;6.30;98.49
5777;BME280;2914;42.668;23.346;2022-11-14T04:43:40;95513.63;;;6.35;98.34
5777;BME280;2914;42.668;23.346;2022-11-14T04:46:09;95513.71;;;6.40;97.83
5777;BME280;2914;42.668;23.346;2022-11-14T04:48:38;95513.42;;;6.45;97.46
5777;BME280;2914;42.668;23.346;2022-11-14T04:51:07;95513.80;;;6.53;97.10
5777;BME280;2914;42.668;23.346;2022-11-14T04:53:37;95513.78;;;6.60;96.50
5777;BME280;2914;42.668;23.346;2022-11-14T04:56:07;95509.59;;;6.65;96.03
5777;BME280;2914;42.668;23.346;2022-11-14T05:01:14;95513.03;;;6.73;95.42
5777;BME280;2914;42.668;23.346;2022-11-14T05:03:44;95507.98;;;6.70;94.59
5777;BME280;2914;42.668;23.346;2022-11-14T05:06:13;95513.33;;;6.68;94.50
5777;BME280;2914;42.668;23.346;2022-11-14T05:08:43;95514.35;;;6.37;95.17
5777;BME280;2914;42.668;23.346;2022-11-14T05:11:16;95511.42;;;6.13;97.39
5777;BME280;2914;42.668;23.346;2022-11-14T05:13:57;95516.95;;;6.08;97.96
5777;BME280;2914;42.668;23.346;2022-11-14T05:16:26;95521.17;;;5.87;98.76
5777;BME280;2914;42.668;23.346;2022-11-14T05:18:56;95519.75;;;6.05;98.56
5777;BME280;2914;42.668;23.346;2022-11-14T05:21:25;95518.63;;;6.02;98.75
5777;BME280;2914;42.668;23.346;2022-11-14T05:23:54;95519.66;;;6.06;98.89
5777;BME280;2914;42.668;23.346;2022-11-14T05:26:23;95522.82;;;6.04;99.08
5777;BME280;2914;42.668;23.346;2022-11-14T05:28:52;95528.34;;;6.07;98.91
5777;BME280;2914;42.668;23.346;2022-11-14T05:31:21;95538.48;;;6.13;98.78
5777;BME280;2914;42.668;23.346;2022-11-14T05:33:51;95532.22;;;6.16;98.46
5777;BME280;2914;42.668;23.346;2022-11-14T05:36:20;95526.12;;;6.15;98.29
5777;BME280;2914;42.668;23.346;2022-11-14T05:38:49;95523.40;;;6.17;98.39
5777;BME280;2914;42.668;23.346;2022-11-14T05:41:18;95528.58;;;6.18;98.19
5777;BME280;2914;42.668;23.346;2022-11-14T05:43:47;95537.12;;;5.75;98.73
5777;BME280;2914;42.668;23.346;2022-11-14T05:46:17;95533.54;;;5.23;100.00
5777;BME280;2914;42.668;23.346;2022-11-14T05:48:46;95537.44;;;5.32;100.00
5777;BME280;2914;42.668;23.346;2022-11-14T05:51:15;95538.66;;;5.17;100.00
5777;BME280;2914;42.668;23.346;2022-11-14T05:53:44;95541.92;;;4.89;100.00
5777;BME280;2914;42.668;23.346;2022-11-14T05:56:13;95539.48;;;4.70;100.00
5777;BME280;2914;42.668;23.346;2022-11-14T06:01:26;95540.34;;;5.02;100.00
5777;BME280;2914;42.668;23.346;2022-11-14T06:03:57;95536.66;;;4.66;100.00
5777;BME280;2914;42.668;23.346;2022-11-14T06:06:26;95541.72;;;4.60;100.00
5777;BME280;2914;42.668;23.346;2022-11-14T06:08:55;95538.41;;;4.65;100.00
5777;BME280;2914;42.668;23.346;2022-11-14T06:11:24;95545.19;;;4.85;100.00
5777;BME280;2914;42.668;23.346;2022-11-14T06:13:53;95541.56;;;5.04;100.00
5777;BME280;2914;42.668;23.346;2022-11-14T06:16:23;95548.09;;;5.04;100.00
5777;BME280;2914;42.668;23.346;2022-11-14T06:18:54;95558.20;;;5.03;100.00
5777;BME280;2914;42.668;23.346;2022-11-14T06:21:24;95555.98;;;5.27;100.00
5777;BME280;2914;42.668;23.346;2022-11-14T06:23:53;95555.41;;;5.45;100.00
5777;BME280;2914;42.668;23.346;2022-11-14T06:26:24;95554.43;;;5.55;100.00
5777;BME280;2914;42.668;23.346;2022-11-14T06:28:54;95556.40;;;5.74;100.00
5777;BME280;2914;42.668;23.346;2022-11-14T06:31:23;95555.13;;;5.89;100.00
5777;BME280;2914;42.668;23.346;2022-11-14T06:33:55;95552.21;;;6.09;100.00
5777;BME280;2914;42.668;23.346;2022-11-14T06:36:24;95558.90;;;6.22;99.88
5777;BME280;2914;42.668;23.346;2022-11-14T06:41:33;95555.93;;;6.50;98.27
5777;BME280;2914;42.668;23.346;2022-11-14T06:44:03;95553.98;;;5.78;98.97
5777;BME280;2914;42.668;23.346;2022-11-14T06:46:34;95553.52;;;5.86;99.97
5777;BME280;2914;42.668;23.346;2022-11-14T06:49:03;95562.20;;;5.33;100.00
5777;BME280;2914;42.668;23.346;2022-11-14T06:54:20;95543.42;;;5.80;100.00
5777;BME280;2914;42.668;23.346;2022-11-14T06:56:51;95544.63;;;5.98;100.00
5777;BME280;2914;42.668;23.346;2022-11-14T07:02:03;95543.33;;;6.12;100.00
5777;BME280;2914;42.668;23.346;2022-11-14T07:07:17;95531.56;;;5.96;99.40
5777;BME280;2914;42.668;23.346;2022-11-14T07:09:46;95531.25;;;6.02;99.27
5777;BME280;2914;42.668;23.346;2022-11-14T07:12:17;95535.90;;;5.74;99.54
5777;BME280;2914;42.668;23.346;2022-11-14T07:14:46;95541.32;;;5.71;100.00
5777;BME280;2914;42.668;23.346;2022-11-14T07:17:18;95537.48;;;5.46;100.00
5777;BME280;2914;42.668;23.346;2022-11-14T07:19:52;95533.38;;;5.49;100.00
5777;BME280;2914;42.668;23.346;2022-11-14T07:22:21;95542.81;;;5.68;100.00
5777;BME280;2914;42.668;23.346;2022-11-14T07:24:51;95541.91;;;5.76;100.00
5777;BME280;2914;42.668;23.346;2022-11-14T07:27:20;95543.73;;;5.67;100.00
5777;BME280;2914;42.668;23.346;2022-11-14T07:29:49;95538.20;;;5.94;100.00
5777;BME280;2914;42.668;23.346;2022-11-14T07:32:18;95537.70;;;6.04;100.00
5777;BME280;2914;42.668;23.346;2022-11-14T07:37:30;95535.05;;;5.97;100.00
5777;BME280;2914;42.668;23.346;2022-11-14T07:40:13;95541.59;;;5.97;100.00
5777;BME280;2914;42.668;23.346;2022-11-14T07:42:43;95532.28;;;6.07;100.00
5777;BME280;2914;42.668;23.346;2022-11-14T07:45:13;95526.02;;;6.02;100.00
5777;BME280;2914;42.668;23.346;2022-11-14T07:47:43;95525.28;;;6.15;100.00
5777;BME280;2914;42.668;23.346;2022-11-14T07:50:14;95523.59;;;6.21;100.00
5777;BME280;2914;42.668;23.346;2022-11-14T07:52:43;95527.27;;;6.25;100.00
5777;BME280;2914;42.668;23.346;2022-11-14T07:55:15;95529.15;;;6.38;100.00
5777;BME280;2914;42.668;23.346;2022-11-14T07:58:00;95530.27;;;6.41;100.00
5777;BME280;2914;42.668;23.346;2022-11-14T08:00:29;95528.50;;;6.49;99.36
5777;BME280;2914;42.668;23.346;2022-11-14T08:05:36;95522.88;;;6.76;98.78
5777;BME280;2914;42.668;23.346;2022-11-14T08:08:06;95526.41;;;6.83;98.55
5777;BME280;2914;42.668;23.346;2022-11-14T08:10:35;95523.88;;;6.81;97.88
5777;BME280;2914;42.668;23.346;2022-11-14T08:13:05;95527.63;;;6.77;97.34
5777;BME280;2914;42.668;23.346;2022-11-14T08:15:40;95527.35;;;6.89;97.74
5777;BME280;2914;42.668;23.346;2022-11-14T08:18:10;95521.53;;;6.91;97.31
5777;BME280;2914;42.668;23.346;2022-11-14T08:20:39;95513.05;;;6.58;98.03
5777;BME280;2914;42.668;23.346;2022-11-14T08:23:08;95518.85;;;6.71;98.22
5777;BME280;2914;42.668;23.346;2022-11-14T08:25:38;95519.78;;;6.84;98.29
5777;BME280;2914;42.668;23.346;2022-11-14T08:28:07;95515.86;;;6.62;98.05
5777;BME280;2914;42.668;23.346;2022-11-14T08:30:37;95518.85;;;6.71;98.46
5777;BME280;2914;42.668;23.346;2022-11-14T08:33:07;95515.39;;;6.56;98.02
5777;BME280;2914;42.668;23.346;2022-11-14T08:35:58;95513.06;;;6.51;98.53
5777;BME280;2914;42.668;23.346;2022-11-14T08:38:27;95507.99;;;6.41;100.00
5777;BME280;2914;42.668;23.346;2022-11-14T08:40:58;95508.83;;;6.63;100.00
5777;BME280;2914;42.668;23.346;2022-11-14T08:43:28;95512.08;;;6.95;100.00
5777;BME280;2914;42.668;23.346;2022-11-14T08:45:58;95504.69;;;7.22;99.00
5777;BME280;2914;42.668;23.346;2022-11-14T08:48:28;95499.86;;;7.43;97.80
5777;BME280;2914;42.668;23.346;2022-11-14T08:51:00;95501.83;;;7.40;96.56
5777;BME280;2914;42.668;23.346;2022-11-14T08:53:28;95502.41;;;7.38;96.74
5777;BME280;2914;42.668;23.346;2022-11-14T08:55:57;95507.88;;;7.75;97.27
5777;BME280;2914;42.668;23.346;2022-11-14T09:01:08;95491.66;;;7.88;93.67
5777;BME280;2914;42.668;23.346;2022-11-14T09:03:37;95490.01;;;7.80;94.10
5777;BME280;2914;42.668;23.346;2022-11-14T09:06:07;95487.80;;;8.07;93.84
5777;BME280;2914;42.668;23.346;2022-11-14T09:08:36;95484.02;;;8.11;93.12
5777;BME280;2914;42.668;23.346;2022-11-14T09:11:05;95479.89;;;7.94;94.08
5777;BME280;2914;42.668;23.346;2022-11-14T09:13:35;95479.61;;;8.37;93.02
5777;BME280;2914;42.668;23.346;2022-11-14T09:16:07;95479.61;;;8.37;93.02
5777;BME280;2914;42.668;23.346;2022-11-14T09:18:37;95471.52;;;8.27;93.85
5777;BME280;2914;42.668;23.346;2022-11-14T09:21:09;95467.19;;;8.01;93.97
5777;BME280;2914;42.668;23.346;2022-11-14T09:23:38;95467.19;;;8.01;93.97
5777;BME280;2914;42.668;23.346;2022-11-14T09:26:08;95451.53;;;7.99;94.22
5777;BME280;2914;42.668;23.346;2022-11-14T09:28:37;95453.91;;;8.09;93.61
5777;BME280;2914;42.668;23.346;2022-11-14T09:31:09;95451.48;;;7.93;94.23
5777;BME280;2914;42.668;23.346;2022-11-14T09:33:38;95454.75;;;7.64;95.68
5777;BME280;2914;42.668;23.346;2022-11-14T09:36:10;95452.52;;;7.58;96.17
5777;BME280;2914;42.668;23.346;2022-11-14T09:38:42;95446.56;;;7.69;96.34
5777;BME280;2914;42.668;23.346;2022-11-14T09:41:23;95448.53;;;7.65;96.66
5777;BME280;2914;42.668;23.346;2022-11-14T09:46:55;95447.72;;;7.77;96.08
5777;BME280;2914;42.668;23.346;2022-11-14T09:49:29;95447.72;;;7.77;96.88
5777;BME280;2914;42.668;23.346;2022-11-14T09:52:04;95444.20;;;7.84;95.87
5777;BME280;2914;42.668;23.346;2022-11-14T09:57:36;95425.05;;;7.89;96.68
5777;BME280;2914;42.668;23.346;2022-11-14T10:00:15;95424.88;;;7.98;96.06
5777;BME280;2914;42.668;23.346;2022-11-14T10:02:52;95430.34;;;7.95;95.65
5777;BME280;2914;42.668;23.346;2022-11-14T10:08:25;95421.80;;;8.24;95.39
5777;BME280;2914;42.668;23.346;2022-11-14T10:10:56;95415.41;;;8.21;95.29
5777;BME280;2914;42.668;23.346;2022-11-14T10:13:37;95412.63;;;8.17;94.86
5777;BME280;2914;42.668;23.346;2022-11-14T10:16:11;95408.70;;;8.30;94.30
5777;BME280;2914;42.668;23.346;2022-11-14T10:18:52;95405.25;;;8.35;94.05
5777;BME280;2914;42.668;23.346;2022-11-14T10:21:34;95406.14;;;8.41;93.90
5777;BME280;2914;42.668;23.346;2022-11-14T10:24:09;95400.28;;;8.51;93.76
5777;BME280;2914;42.668;23.346;2022-11-14T10:26:40;95396.25;;;8.13;94.60
5777;BME280;2914;42.668;23.346;2022-11-14T10:29:37;95392.09;;;7.91;97.22
5777;BME280;2914;42.668;23.346;2022-11-14T10:32:13;95386.95;;;8.15;96.61
5777;BME280;2914;42.668;23.346;2022-11-14T10:34:43;95384.06;;;8.31;95.85
5777;BME280;2914;42.668;23.346;2022-11-14T10:37:16;95377.34;;;8.40;95.14
5777;BME280;2914;42.668;23.346;2022-11-14T10:39:51;95370.14;;;7.92;96.63
5777;BME280;2914;42.668;23.346;2022-11-14T10:42:25;95374.00;;;8.25;96.28
5777;BME280;2914;42.668;23.346;2022-11-14T10:44:57;95362.66;;;8.24;96.20
5777;BME280;2914;42.668;23.346;2022-11-14T10:47:31;95366.27;;;8.29;96.01
5777;BME280;2914;42.668;23.346;2022-11-14T10:50:04;95358.71;;;8.43;95.16
5777;BME280;2914;42.668;23.346;2022-11-14T10:52:35;95358.71;;;8.43;95.16
5777;BME280;2914;42.668;23.346;2022-11-14T10:57:48;95351.20;;;8.31;99.52
5777;BME280;2914;42.668;23.346;2022-11-14T11:02:57;95337.91;;;8.58;95.38
5777;BME280;2914;42.668;23.346;2022-11-14T11:08:10;95340.23;;;8.63;95.52
5777;BME280;2914;42.668;23.346;2022-11-14T11:10:59;95340.23;;;8.63;95.52
5777;BME280;2914;42.668;23.346;2022-11-14T11:16:29;95325.75;;;8.87;94.50
5777;BME280;2914;42.668;23.346;2022-11-14T11:21:53;95323.73;;;9.15;93.20
5777;BME280;2914;42.668;23.346;2022-11-14T11:24:33;95329.15;;;9.30;91.96
5777;BME280;2914;42.668;23.346;2022-11-14T11:30:11;95316.38;;;9.43;90.96
5777;BME280;2914;42.668;23.346;2022-11-14T11:32:38;95316.38;;;9.43;90.96
5777;BME280;2914;42.668;23.346;2022-11-14T11:35:12;95317.38;;;9.70;89.60
5777;BME280;2914;42.668;23.346;2022-11-14T11:40:21;95321.46;;;9.80;89.45
5777;BME280;2914;42.668;23.346;2022-11-14T11:42:56;95321.46;;;9.80;89.45
5777;BME280;2914;42.668;23.346;2022-11-14T11:45:24;95303.51;;;9.85;89.19
5777;BME280;2914;42.668;23.346;2022-11-14T11:47:56;95308.66;;;9.92;88.95
5777;BME280;2914;42.668;23.346;2022-11-14T11:50:27;95308.66;;;9.92;88.95
5777;BME280;2914;42.668;23.346;2022-11-14T11:53:05;95302.17;;;10.02;88.70
5777;BME280;2914;42.668;23.346;2022-11-14T11:55:35;95300.15;;;10.06;88.36
5777;BME280;2914;42.668;23.346;2022-11-14T11:58:09;95293.19;;;10.10;88.21
5777;BME280;2914;42.668;23.346;2022-11-14T12:00:39;95290.78;;;10.18;87.64
5777;BME280;2914;42.668;23.346;2022-11-14T12:03:12;95291.84;;;10.27;87.42
5777;BME280;2914;42.668;23.346;2022-11-14T12:08:28;95277.26;;;10.34;86.93
5777;BME280;2914;42.668;23.346;2022-11-14T12:10:57;95284.91;;;10.09;88.51
5777;BME280;2914;42.668;23.346;2022-11-14T12:13:55;95284.91;;;10.09;88.51
5777;BME280;2914;42.668;23.346;2022-11-14T12:17:01;95284.06;;;10.20;88.09
5777;BME280;2914;42.668;23.346;2022-11-14T12:19:44;95278.34;;;9.98;90.13
5777;BME280;2914;42.668;23.346;2022-11-14T12:22:23;95254.62;;;9.98;90.13
5777;BME280;2914;42.668;23.346;2022-11-14T12:25:01;95257.36;;;10.08;89.16
5777;BME280;2914;42.668;23.346;2022-11-14T12:27:44;95257.36;;;10.08;89.16
5777;BME280;2914;42.668;23.346;2022-11-14T12:30:17;95266.69;;;10.17;88.83
5777;BME280;2914;42.668;23.346;2022-11-14T12:32:51;95256.64;;;10.00;90.11
5777;BME280;2914;42.668;23.346;2022-11-14T12:35:23;95256.64;;;10.00;90.11
5777;BME280;2914;42.668;23.346;2022-11-14T12:37:54;95259.51;;;10.19;89.25
5777;BME280;2914;42.668;23.346;2022-11-14T12:40:28;95255.29;;;10.28;88.98
5777;BME280;2914;42.668;23.346;2022-11-14T12:42:59;95258.55;;;10.38;88.51
5777;BME280;2914;42.668;23.346;2022-11-14T12:45:56;95252.81;;;10.15;89.17
5777;BME280;2914;42.668;23.346;2022-11-14T12:48:37;95255.57;;;10.14;89.56
5777;BME280;2914;42.668;23.346;2022-11-14T12:53:56;95253.95;;;10.34;89.84
5777;BME280;2914;42.668;23.346;2022-11-14T12:56:53;95249.79;;;10.43;89.00
5777;BME280;2914;42.668;23.346;2022-11-14T12:59:30;95250.83;;;10.51;88.61
5777;BME280;2914;42.668;23.346;2022-11-14T13:02:10;95246.46;;;10.62;87.80
5777;BME280;2914;42.668;23.346;2022-11-14T13:04:43;95245.36;;;10.70;87.25
5777;BME280;2914;42.668;23.346;2022-11-14T13:07:22;95228.11;;;10.72;87.20
5777;BME280;2914;42.668;23.346;2022-11-14T13:12:59;95235.44;;;10.89;86.49
5777;BME280;2914;42.668;23.346;2022-11-14T13:15:51;95234.98;;;10.90;86.19
5777;BME280;2914;42.668;23.346;2022-11-14T13:18:52;95237.22;;;10.94;85.47
5777;BME280;2914;42.668;23.346;2022-11-14T13:22:15;95236.00;;;10.98;85.51
5777;BME280;2914;42.668;23.346;2022-11-14T13:24:34;95230.13;;;10.95;85.45
5777;BME280;2914;42.668;23.346;2022-11-14T13:27:25;95225.08;;;10.97;85.62
5777;BME280;2914;42.668;23.346;2022-11-14T13:29:54;95227.13;;;10.99;85.72
5777;BME280;2914;42.668;23.346;2022-11-14T13:33:05;95220.98;;;11.05;85.41
5777;BME280;2914;42.668;23.346;2022-11-14T13:35:58;95222.41;;;11.09;85.26
5777;BME280;2914;42.668;23.346;2022-11-14T13:39:18;95216.80;;;11.02;85.31
5777;BME280;2914;42.668;23.346;2022-11-14T13:48:47;95220.09;;;11.10;85.39
5777;BME280;2914;42.668;23.346;2022-11-14T13:51:18;95222.05;;;11.08;85.43
5777;BME280;2914;42.668;23.346;2022-11-14T13:53:49;95218.18;;;11.12;85.30
5777;BME280;2914;42.668;23.346;2022-11-14T13:56:27;95216.23;;;11.14;85.29
5777;BME280;2914;42.668;23.346;2022-11-14T13:59:12;95208.31;;;11.14;84.92
5777;BME280;2914;42.668;23.346;2022-11-14T14:01:50;95215.50;;;11.17;84.70
5777;BME280;2914;42.668;23.346;2022-11-14T14:04:27;95207.71;;;11.16;84.86
5777;BME280;2914;42.668;23.346;2022-11-14T14:07:01;95205.08;;;11.16;84.83
5777;BME280;2914;42.668;23.346;2022-11-14T14:12:47;95202.89;;;11.21;85.17
5777;BME280;2914;42.668;23.346;2022-11-14T14:18:09;95200.71;;;11.20;84.72
5777;BME280;2914;42.668;23.346;2022-11-14T14:20:44;95199.30;;;11.16;84.53
5777;BME280;2914;42.668;23.346;2022-11-14T14:23:28;95198.07;;;11.20;84.49
5777;BME280;2914;42.668;23.346;2022-11-14T14:26:01;95201.44;;;11.23;84.57
5777;BME280;2914;42.668;23.346;2022-11-14T14:28:38;95202.62;;;11.24;84.46
5777;BME280;2914;42.668;23.346;2022-11-14T14:31:13;95206.09;;;11.25;84.53
5777;BME280;2914;42.668;23.346;2022-11-14T14:33:43;95202.03;;;11.20;84.47
5777;BME280;2914;42.668;23.346;2022-11-14T14:36:22;95203.22;;;11.22;84.43
5777;BME280;2914;42.668;23.346;2022-11-14T14:39:06;95205.58;;;11.10;85.08
5777;BME280;2914;42.668;23.346;2022-11-14T14:41:36;95206.07;;;11.09;85.75
5777;BME280;2914;42.668;23.346;2022-11-14T14:44:10;95196.80;;;10.94;86.94
5777;BME280;2914;42.668;23.346;2022-11-14T14:49:23;95193.59;;;11.06;87.27
5777;BME280;2914;42.668;23.346;2022-11-14T14:51:53;95190.73;;;11.03;87.23
5777;BME280;2914;42.668;23.346;2022-11-14T14:54:24;95195.28;;;11.07;87.25
5777;BME280;2914;42.668;23.346;2022-11-14T14:56:55;95194.78;;;11.07;87.20
5777;BME280;2914;42.668;23.346;2022-11-14T14:59:27;95196.00;;;11.09;87.08
5777;BME280;2914;42.668;23.346;2022-11-14T15:01:58;95192.23;;;11.11;86.97
5777;BME280;2914;42.668;23.346;2022-11-14T15:04:38;95190.59;;;11.10;87.01
5777;BME280;2914;42.668;23.346;2022-11-14T15:07:01;95192.59;;;11.12;86.91
5777;BME280;2914;42.668;23.346;2022-11-14T15:09:30;95190.45;;;11.12;87.11
5777;BME280;2914;42.668;23.346;2022-11-14T15:12:00;95176.66;;;11.45;100.00
5777;BME280;2914;42.668;23.346;2022-11-14T15:14:31;95177.48;;;11.76;100.00
5777;BME280;2914;42.668;23.346;2022-11-14T15:17:03;95178.22;;;11.73;100.00